EBOS

Ostend-Bruges International Airport

Ostend, Belgium
METAR EBOS 172050Z 21016KT 2500 RA BKN005 BKN007 05/04 Q1019 REDZ TEMPO 4000 RADZ
Observed Flight Rules
Dec-17 @ 20:50 UTC (23 minutes ago) Instrument Flight Rules
Wind Visibility Clouds Conditions
210° at 16 knots 2,494 meters
  • Broken at 500' AGL
  • Broken at 700' AGL
  • Rain
Temperatures Readings
Current 5°C / 41°F
Dewpoint 4°C / 39°F
Humidity 93%
Altimeter 30.09" Hg
Pressure 1019 hPa
Elevation 5
METAR EBOS 172050Z 21016KT 2500 RA BKN005 BKN007 05/04 Q1019 REDZ TEMPO 4000 RADZ
Observed Flight Rules
Dec-17 @ 20:50 UTC
(23 minutes ago)
IFR
Wind Visibility
210° at 16 knots 2,494 meters
Clouds
  • Broken at 500' AGL
  • Broken at 700' AGL
Conditions
  • Rain
Temperature Dewpoint
5°C / 41°F 4°C / 39°F
Humidity Altimeter Pressure
93% 30.09" Hg 1019 hPa